sensor_id;sensor_type;location;lat;lon;timestamp;pressure;altitude;pressure_sealevel;temperature;humidity
28927;BME280;16038;47.692;9.400;2023-01-08T00:00:21;96246.59;;;-0.94;100.00
28927;BME280;16038;47.692;9.400;2023-01-08T00:02:46;96250.28;;;-0.90;100.00
28927;BME280;16038;47.692;9.400;2023-01-08T00:05:14;96247.34;;;-0.80;100.00
28927;BME280;16038;47.692;9.400;2023-01-08T00:07:39;96239.16;;;-0.74;100.00
28927;BME280;16038;47.692;9.400;2023-01-08T00:10:04;96237.88;;;-0.77;100.00
28927;BME280;16038;47.692;9.400;2023-01-08T00:12:29;96245.75;;;-0.58;100.00
28927;BME280;16038;47.692;9.400;2023-01-08T00:14:55;96239.00;;;-0.55;100.00
28927;BME280;16038;47.692;9.400;2023-01-08T00:17:20;96230.44;;;-0.57;100.00
28927;BME280;16038;47.692;9.400;2023-01-08T00:19:45;96225.84;;;-0.57;100.00
28927;BME280;16038;47.692;9.400;2023-01-08T00:22:11;96235.25;;;-0.46;100.00
28927;BME280;16038;47.692;9.400;2023-01-08T00:24:36;96234.63;;;-0.43;100.00
28927;BME280;16038;47.692;9.400;2023-01-08T00:27:01;96246.78;;;-0.45;100.00
28927;BME280;16038;47.692;9.400;2023-01-08T00:29:27;96236.84;;;-0.45;100.00
28927;BME280;16038;47.692;9.400;2023-01-08T00:31:52;96236.28;;;-0.33;100.00
28927;BME280;16038;47.692;9.400;2023-01-08T00:34:17;96243.06;;;-0.35;100.00
28927;BME280;16038;47.692;9.400;2023-01-08T00:36:42;96239.81;;;-0.24;100.00
28927;BME280;16038;47.692;9.400;2023-01-08T00:39:08;96230.94;;;-0.24;100.00
28927;BME280;16038;47.692;9.400;2023-01-08T00:41:33;96232.06;;;-0.25;100.00
28927;BME280;16038;47.692;9.400;2023-01-08T00:43:58;96221.97;;;-0.20;100.00
28927;BME280;16038;47.692;9.400;2023-01-08T00:46:24;96223.84;;;-0.20;100.00
28927;BME280;16038;47.692;9.400;2023-01-08T00:48:49;96221.78;;;-0.23;100.00
28927;BME280;16038;47.692;9.400;2023-01-08T00:51:14;96212.22;;;-0.61;100.00
28927;BME280;16038;47.692;9.400;2023-01-08T00:53:39;96213.19;;;-0.56;100.00
28927;BME280;16038;47.692;9.400;2023-01-08T00:56:06;96202.84;;;-0.86;100.00
28927;BME280;16038;47.692;9.400;2023-01-08T00:58:31;96196.31;;;-0.93;100.00
28927;BME280;16038;47.692;9.400;2023-01-08T01:00:56;96193.44;;;-0.97;100.00
28927;BME280;16038;47.692;9.400;2023-01-08T01:03:22;96190.25;;;-0.77;100.00
28927;BME280;16038;47.692;9.400;2023-01-08T01:05:47;96185.06;;;-0.73;100.00
28927;BME280;16038;47.692;9.400;2023-01-08T01:08:14;96188.63;;;-0.86;100.00
28927;BME280;16038;47.692;9.400;2023-01-08T01:10:39;96187.88;;;-0.78;100.00
28927;BME280;16038;47.692;9.400;2023-01-08T01:13:05;96194.59;;;-0.44;100.00
28927;BME280;16038;47.692;9.400;2023-01-08T01:15:30;96181.19;;;-0.58;100.00
28927;BME280;16038;47.692;9.400;2023-01-08T01:17:55;96175.75;;;-0.67;100.00
28927;BME280;16038;47.692;9.400;2023-01-08T01:20:21;96174.72;;;-0.80;100.00
28927;BME280;16038;47.692;9.400;2023-01-08T01:22:47;96175.28;;;-0.91;100.00
28927;BME280;16038;47.692;9.400;2023-01-08T01:25:13;96180.31;;;-0.99;100.00
28927;BME280;16038;47.692;9.400;2023-01-08T01:27:38;96192.22;;;-0.91;100.00
28927;BME280;16038;47.692;9.400;2023-01-08T01:30:04;96191.44;;;-0.91;100.00
28927;BME280;16038;47.692;9.400;2023-01-08T01:32:29;96190.56;;;-1.01;100.00
28927;BME280;16038;47.692;9.400;2023-01-08T01:34:55;96188.78;;;-1.05;100.00
28927;BME280;16038;47.692;9.400;2023-01-08T01:37:20;96206.06;;;-0.98;100.00
28927;BME280;16038;47.692;9.400;2023-01-08T01:39:45;96198.00;;;-0.98;100.00
28927;BME280;16038;47.692;9.400;2023-01-08T01:42:12;96192.81;;;-0.94;100.00
28927;BME280;16038;47.692;9.400;2023-01-08T01:44:58;96194.16;;;-1.05;100.00
28927;BME280;16038;47.692;9.400;2023-01-08T01:49:56;96197.16;;;-1.07;100.00
28927;BME280;16038;47.692;9.400;2023-01-08T01:52:24;96195.25;;;-1.06;100.00
28927;BME280;16038;47.692;9.400;2023-01-08T01:54:52;96205.63;;;-1.13;100.00
28927;BME280;16038;47.692;9.400;2023-01-08T01:57:18;96200.31;;;-1.05;100.00
28927;BME280;16038;47.692;9.400;2023-01-08T01:59:43;96191.31;;;-0.86;100.00
28927;BME280;16038;47.692;9.400;2023-01-08T02:02:09;96182.44;;;-0.87;100.00
28927;BME280;16038;47.692;9.400;2023-01-08T02:04:34;96186.06;;;-0.91;100.00
28927;BME280;16038;47.692;9.400;2023-01-08T02:09:36;96193.25;;;-0.78;100.00
28927;BME280;16038;47.692;9.400;2023-01-08T02:17:13;96203.16;;;-0.87;100.00
28927;BME280;16038;47.692;9.400;2023-01-08T02:24:50;96194.13;;;-0.91;100.00
28927;BME280;16038;47.692;9.400;2023-01-08T02:27:18;96193.25;;;-0.78;100.00
28927;BME280;16038;47.692;9.400;2023-01-08T02:29:44;96190.44;;;-0.73;100.00
28927;BME280;16038;47.692;9.400;2023-01-08T02:32:11;96184.28;;;-0.73;100.00
28927;BME280;16038;47.692;9.400;2023-01-08T02:34:36;96184.16;;;-0.68;100.00
28927;BME280;16038;47.692;9.400;2023-01-08T02:37:02;96171.31;;;-0.71;100.00
28927;BME280;16038;47.692;9.400;2023-01-08T02:49:49;96147.63;;;-1.51;100.00
28927;BME280;16038;47.692;9.400;2023-01-08T02:52:18;96139.78;;;-1.61;100.00
28927;BME280;16038;47.692;9.400;2023-01-08T02:54:43;96123.09;;;-1.72;100.00
28927;BME280;16038;47.692;9.400;2023-01-08T02:57:11;96100.94;;;-1.78;100.00
28927;BME280;16038;47.692;9.400;2023-01-08T02:59:37;96087.13;;;-1.85;100.00
28927;BME280;16038;47.692;9.400;2023-01-08T03:02:04;96079.38;;;-1.86;100.00
28927;BME280;16038;47.692;9.400;2023-01-08T03:04:31;96076.97;;;-1.74;100.00
28927;BME280;16038;47.692;9.400;2023-01-08T03:06:58;96069.88;;;-1.70;100.00
28927;BME280;16038;47.692;9.400;2023-01-08T03:09:24;96063.50;;;-1.38;100.00
28927;BME280;16038;47.692;9.400;2023-01-08T03:11:52;96061.88;;;-1.47;100.00
28927;BME280;16038;47.692;9.400;2023-01-08T03:14:22;96054.22;;;-1.54;100.00
28927;BME280;16038;47.692;9.400;2023-01-08T03:16:51;96066.94;;;-1.46;100.00
28927;BME280;16038;47.692;9.400;2023-01-08T03:19:24;96050.06;;;-1.38;100.00
28927;BME280;16038;47.692;9.400;2023-01-08T03:21:50;96052.94;;;-1.34;100.00
28927;BME280;16038;47.692;9.400;2023-01-08T03:24:17;96058.19;;;-1.29;100.00
28927;BME280;16038;47.692;9.400;2023-01-08T03:26:44;96059.94;;;-1.24;100.00
28927;BME280;16038;47.692;9.400;2023-01-08T03:29:12;96071.06;;;-1.17;100.00
28927;BME280;16038;47.692;9.400;2023-01-08T03:31:38;96073.44;;;-1.16;100.00
28927;BME280;16038;47.692;9.400;2023-01-08T03:34:04;96067.94;;;-1.10;100.00
28927;BME280;16038;47.692;9.400;2023-01-08T03:36:30;96061.50;;;-1.09;100.00
28927;BME280;16038;47.692;9.400;2023-01-08T03:38:59;96055.81;;;-1.08;100.00
28927;BME280;16038;47.692;9.400;2023-01-08T03:41:27;96048.34;;;-1.11;100.00
28927;BME280;16038;47.692;9.400;2023-01-08T03:43:53;96052.31;;;-1.08;100.00
28927;BME280;16038;47.692;9.400;2023-01-08T03:46:22;96056.78;;;-1.04;100.00
28927;BME280;16038;47.692;9.400;2023-01-08T03:48:49;96050.25;;;-1.11;100.00
28927;BME280;16038;47.692;9.400;2023-01-08T03:51:15;96047.06;;;-1.13;100.00
28927;BME280;16038;47.692;9.400;2023-01-08T03:53:40;96046.69;;;-1.21;100.00
28927;BME280;16038;47.692;9.400;2023-01-08T03:56:06;96039.41;;;-0.98;100.00
28927;BME280;16038;47.692;9.400;2023-01-08T03:58:31;96042.00;;;-1.15;100.00
28927;BME280;16038;47.692;9.400;2023-01-08T04:00:56;96034.50;;;-0.96;100.00
28927;BME280;16038;47.692;9.400;2023-01-08T04:03:22;96036.63;;;-0.84;100.00
28927;BME280;16038;47.692;9.400;2023-01-08T04:05:48;96029.84;;;-0.81;100.00
28927;BME280;16038;47.692;9.400;2023-01-08T04:08:15;96032.34;;;-0.85;100.00
28927;BME280;16038;47.692;9.400;2023-01-08T04:10:41;96030.53;;;-0.75;100.00
28927;BME280;16038;47.692;9.400;2023-01-08T04:13:06;96033.03;;;-0.79;100.00
28927;BME280;16038;47.692;9.400;2023-01-08T04:15:32;96034.44;;;-0.82;100.00
28927;BME280;16038;47.692;9.400;2023-01-08T04:17:57;96023.53;;;-0.77;100.00
28927;BME280;16038;47.692;9.400;2023-01-08T04:20:22;96027.00;;;-0.76;100.00
28927;BME280;16038;47.692;9.400;2023-01-08T04:22:48;96038.16;;;-0.60;100.00
28927;BME280;16038;47.692;9.400;2023-01-08T04:25:13;96036.25;;;-0.60;100.00
28927;BME280;16038;47.692;9.400;2023-01-08T04:27:38;96032.34;;;-0.53;100.00
28927;BME280;16038;47.692;9.400;2023-01-08T04:30:04;96030.75;;;-0.54;100.00
28927;BME280;16038;47.692;9.400;2023-01-08T04:32:29;96037.25;;;-0.55;100.00
28927;BME280;16038;47.692;9.400;2023-01-08T04:34:55;96037.69;;;-0.62;100.00
28927;BME280;16038;47.692;9.400;2023-01-08T04:37:20;96027.88;;;-0.58;100.00
28927;BME280;16038;47.692;9.400;2023-01-08T04:39:45;96025.31;;;-0.72;100.00
28927;BME280;16038;47.692;9.400;2023-01-08T04:42:11;96046.31;;;-0.83;100.00
28927;BME280;16038;47.692;9.400;2023-01-08T04:44:36;96041.59;;;-1.00;100.00
28927;BME280;16038;47.692;9.400;2023-01-08T04:47:01;96043.16;;;-1.07;100.00
28927;BME280;16038;47.692;9.400;2023-01-08T04:49:27;96033.66;;;-1.05;100.00
28927;BME280;16038;47.692;9.400;2023-01-08T04:51:52;96037.34;;;-1.01;100.00
28927;BME280;16038;47.692;9.400;2023-01-08T04:54:17;96024.47;;;-0.81;100.00
28927;BME280;16038;47.692;9.400;2023-01-08T04:56:42;96024.38;;;-0.67;100.00
28927;BME280;16038;47.692;9.400;2023-01-08T04:59:08;96022.84;;;-0.51;100.00
28927;BME280;16038;47.692;9.400;2023-01-08T05:01:33;96038.19;;;-0.51;100.00
28927;BME280;16038;47.692;9.400;2023-01-08T05:04:03;96033.31;;;-0.41;100.00
28927;BME280;16038;47.692;9.400;2023-01-08T05:06:29;96042.03;;;-0.35;100.00
28927;BME280;16038;47.692;9.400;2023-01-08T05:08:55;96049.66;;;-0.28;100.00
28927;BME280;16038;47.692;9.400;2023-01-08T05:11:20;96034.78;;;-0.26;100.00
28927;BME280;16038;47.692;9.400;2023-01-08T05:13:46;96051.28;;;-0.18;100.00
28927;BME280;16038;47.692;9.400;2023-01-08T05:16:12;96053.06;;;-0.45;100.00
28927;BME280;16038;47.692;9.400;2023-01-08T05:18:38;96054.09;;;-0.24;100.00
28927;BME280;16038;47.692;9.400;2023-01-08T05:21:03;96054.00;;;-0.10;100.00
28927;BME280;16038;47.692;9.400;2023-01-08T05:23:30;96056.19;;;-0.12;100.00
28927;BME280;16038;47.692;9.400;2023-01-08T05:25:56;96062.00;;;-0.27;100.00
28927;BME280;16038;47.692;9.400;2023-01-08T05:28:22;96059.47;;;-0.24;100.00
28927;BME280;16038;47.692;9.400;2023-01-08T05:30:48;96070.03;;;-0.45;100.00
28927;BME280;16038;47.692;9.400;2023-01-08T05:33:13;96067.56;;;-0.64;100.00
28927;BME280;16038;47.692;9.400;2023-01-08T05:35:39;96059.06;;;-0.57;100.00
28927;BME280;16038;47.692;9.400;2023-01-08T05:38:04;96049.06;;;-0.65;100.00
28927;BME280;16038;47.692;9.400;2023-01-08T05:40:29;96052.59;;;-0.87;100.00
28927;BME280;16038;47.692;9.400;2023-01-08T05:42:57;96049.88;;;-0.56;100.00
28927;BME280;16038;47.692;9.400;2023-01-08T05:45:22;96060.06;;;-0.44;100.00
28927;BME280;16038;47.692;9.400;2023-01-08T05:47:48;96056.63;;;-0.67;100.00
28927;BME280;16038;47.692;9.400;2023-01-08T05:50:13;96064.47;;;-0.80;100.00
28927;BME280;16038;47.692;9.400;2023-01-08T05:52:38;96064.44;;;-0.88;100.00
28927;BME280;16038;47.692;9.400;2023-01-08T05:55:04;96073.75;;;-0.94;100.00
28927;BME280;16038;47.692;9.400;2023-01-08T05:57:29;96076.66;;;-0.82;100.00
28927;BME280;16038;47.692;9.400;2023-01-08T05:59:54;96071.41;;;-0.87;100.00
28927;BME280;16038;47.692;9.400;2023-01-08T06:02:19;96080.13;;;-0.82;100.00
28927;BME280;16038;47.692;9.400;2023-01-08T06:04:45;96085.16;;;-0.89;100.00
28927;BME280;16038;47.692;9.400;2023-01-08T06:07:10;96085.94;;;-0.88;100.00
28927;BME280;16038;47.692;9.400;2023-01-08T06:09:36;96083.88;;;-0.91;100.00
28927;BME280;16038;47.692;9.400;2023-01-08T06:12:01;96078.88;;;-0.84;100.00
28927;BME280;16038;47.692;9.400;2023-01-08T06:14:26;96084.59;;;-0.77;100.00
28927;BME280;16038;47.692;9.400;2023-01-08T06:16:51;96082.66;;;-0.54;100.00
28927;BME280;16038;47.692;9.400;2023-01-08T06:19:17;96074.13;;;-0.47;100.00
28927;BME280;16038;47.692;9.400;2023-01-08T06:21:43;96080.16;;;-0.42;100.00
28927;BME280;16038;47.692;9.400;2023-01-08T06:24:08;96084.81;;;-0.25;100.00
28927;BME280;16038;47.692;9.400;2023-01-08T06:26:33;96078.03;;;-0.13;100.00
28927;BME280;16038;47.692;9.400;2023-01-08T06:28:59;96094.25;;;0.04;100.00
28927;BME280;16038;47.692;9.400;2023-01-08T06:31:24;96090.91;;;0.07;100.00
28927;BME280;16038;47.692;9.400;2023-01-08T06:33:49;96088.25;;;0.25;100.00
28927;BME280;16038;47.692;9.400;2023-01-08T06:36:15;96095.56;;;0.33;100.00
28927;BME280;16038;47.692;9.400;2023-01-08T06:38:40;96077.97;;;0.35;100.00
28927;BME280;16038;47.692;9.400;2023-01-08T06:41:06;96079.91;;;0.44;100.00
28927;BME280;16038;47.692;9.400;2023-01-08T06:43:33;96082.44;;;0.49;100.00
28927;BME280;16038;47.692;9.400;2023-01-08T06:45:58;96080.69;;;0.53;100.00
28927;BME280;16038;47.692;9.400;2023-01-08T06:48:24;96079.56;;;0.54;100.00
28927;BME280;16038;47.692;9.400;2023-01-08T06:50:49;96081.00;;;0.60;100.00
28927;BME280;16038;47.692;9.400;2023-01-08T06:53:14;96084.16;;;0.45;100.00
28927;BME280;16038;47.692;9.400;2023-01-08T06:55:40;96077.00;;;0.23;100.00
28927;BME280;16038;47.692;9.400;2023-01-08T06:58:05;96076.69;;;0.15;100.00
28927;BME280;16038;47.692;9.400;2023-01-08T07:00:30;96073.84;;;0.21;100.00
28927;BME280;16038;47.692;9.400;2023-01-08T07:02:56;96072.88;;;0.25;100.00
28927;BME280;16038;47.692;9.400;2023-01-08T07:05:21;96062.94;;;0.26;100.00
28927;BME280;16038;47.692;9.400;2023-01-08T07:07:47;96070.03;;;0.04;100.00
28927;BME280;16038;47.692;9.400;2023-01-08T07:10:12;96059.19;;;-0.13;100.00
28927;BME280;16038;47.692;9.400;2023-01-08T07:12:38;96054.09;;;-0.32;100.00
28927;BME280;16038;47.692;9.400;2023-01-08T07:15:03;96047.63;;;-0.23;100.00
28927;BME280;16038;47.692;9.400;2023-01-08T07:17:30;96038.00;;;-0.06;100.00
28927;BME280;16038;47.692;9.400;2023-01-08T07:19:56;96039.28;;;0.05;100.00
28927;BME280;16038;47.692;9.400;2023-01-08T07:22:21;96043.75;;;0.27;100.00
28927;BME280;16038;47.692;9.400;2023-01-08T07:24:48;96044.88;;;0.52;100.00
28927;BME280;16038;47.692;9.400;2023-01-08T07:27:13;96031.72;;;0.60;100.00
28927;BME280;16038;47.692;9.400;2023-01-08T07:29:38;96034.41;;;0.60;100.00
28927;BME280;16038;47.692;9.400;2023-01-08T07:32:04;96037.72;;;0.48;100.00
28927;BME280;16038;47.692;9.400;2023-01-08T07:34:29;96042.34;;;0.56;100.00
28927;BME280;16038;47.692;9.400;2023-01-08T07:36:54;96044.06;;;0.61;100.00
28927;BME280;16038;47.692;9.400;2023-01-08T07:39:20;96051.69;;;0.67;100.00
28927;BME280;16038;47.692;9.400;2023-01-08T07:41:45;96034.25;;;0.56;100.00
28927;BME280;16038;47.692;9.400;2023-01-08T07:44:10;96053.28;;;0.60;100.00
28927;BME280;16038;47.692;9.400;2023-01-08T07:46:36;96040.06;;;0.75;100.00
28927;BME280;16038;47.692;9.400;2023-01-08T07:49:01;96051.81;;;0.80;100.00
28927;BME280;16038;47.692;9.400;2023-01-08T07:51:26;96038.66;;;0.52;100.00
28927;BME280;16038;47.692;9.400;2023-01-08T07:53:51;96041.38;;;0.52;100.00
28927;BME280;16038;47.692;9.400;2023-01-08T07:56:17;96034.22;;;0.65;100.00
28927;BME280;16038;47.692;9.400;2023-01-08T07:58:42;96037.06;;;0.86;100.00
28927;BME280;16038;47.692;9.400;2023-01-08T08:01:08;96047.34;;;1.10;100.00
28927;BME280;16038;47.692;9.400;2023-01-08T08:03:34;96051.75;;;1.14;100.00
28927;BME280;16038;47.692;9.400;2023-01-08T08:05:59;96068.50;;;1.46;100.00
28927;BME280;16038;47.692;9.400;2023-01-08T08:08:25;96070.06;;;1.47;100.00
28927;BME280;16038;47.692;9.400;2023-01-08T08:10:50;96060.41;;;1.46;100.00
28927;BME280;16038;47.692;9.400;2023-01-08T08:13:16;96055.66;;;1.34;100.00
28927;BME280;16038;47.692;9.400;2023-01-08T08:15:41;96055.63;;;1.43;100.00
28927;BME280;16038;47.692;9.400;2023-01-08T08:18:06;96057.84;;;1.50;100.00
28927;BME280;16038;47.692;9.400;2023-01-08T08:20:32;96054.25;;;1.37;100.00
28927;BME280;16038;47.692;9.400;2023-01-08T08:23:05;96045.09;;;1.21;100.00
28927;BME280;16038;47.692;9.400;2023-01-08T08:25:31;96034.97;;;0.91;100.00
28927;BME280;16038;47.692;9.400;2023-01-08T08:27:56;96028.81;;;0.65;100.00
28927;BME280;16038;47.692;9.400;2023-01-08T08:30:22;96028.69;;;0.61;100.00
28927;BME280;16038;47.692;9.400;2023-01-08T08:32:48;96033.59;;;0.76;100.00
28927;BME280;16038;47.692;9.400;2023-01-08T08:35:13;96036.19;;;1.20;100.00
28927;BME280;16038;47.692;9.400;2023-01-08T08:37:39;96031.97;;;1.40;100.00
28927;BME280;16038;47.692;9.400;2023-01-08T08:40:04;96034.97;;;1.47;100.00
28927;BME280;16038;47.692;9.400;2023-01-08T08:42:29;96043.88;;;1.48;100.00
28927;BME280;16038;47.692;9.400;2023-01-08T08:44:55;96055.44;;;1.57;100.00
28927;BME280;16038;47.692;9.400;2023-01-08T08:47:20;96073.00;;;1.63;100.00
28927;BME280;16038;47.692;9.400;2023-01-08T08:49:45;96081.53;;;1.74;100.00
28927;BME280;16038;47.692;9.400;2023-01-08T08:52:11;96094.75;;;2.05;100.00
28927;BME280;16038;47.692;9.400;2023-01-08T08:54:36;96105.06;;;2.03;100.00
28927;BME280;16038;47.692;9.400;2023-01-08T08:57:05;96115.38;;;2.10;100.00
28927;BME280;16038;47.692;9.400;2023-01-08T08:59:30;96110.53;;;1.95;100.00
28927;BME280;16038;47.692;9.400;2023-01-08T09:01:56;96118.50;;;1.91;100.00
28927;BME280;16038;47.692;9.400;2023-01-08T09:04:21;96100.38;;;1.91;100.00
28927;BME280;16038;47.692;9.400;2023-01-08T09:06:46;96086.13;;;2.12;100.00
28927;BME280;16038;47.692;9.400;2023-01-08T09:09:11;96083.84;;;2.23;100.00
28927;BME280;16038;47.692;9.400;2023-01-08T09:11:39;96064.50;;;2.12;100.00
28927;BME280;16038;47.692;9.400;2023-01-08T09:14:04;96066.78;;;2.31;100.00
28927;BME280;16038;47.692;9.400;2023-01-08T09:16:29;96056.38;;;2.42;100.00
28927;BME280;16038;47.692;9.400;2023-01-08T09:18:56;96060.66;;;2.64;100.00
28927;BME280;16038;47.692;9.400;2023-01-08T09:21:22;96073.72;;;2.95;100.00
28927;BME280;16038;47.692;9.400;2023-01-08T09:23:47;96082.59;;;3.04;100.00
28927;BME280;16038;47.692;9.400;2023-01-08T09:26:13;96086.31;;;3.12;100.00
28927;BME280;16038;47.692;9.400;2023-01-08T09:28:38;96088.13;;;3.08;100.00
28927;BME280;16038;47.692;9.400;2023-01-08T09:31:03;96093.66;;;3.12;100.00
28927;BME280;16038;47.692;9.400;2023-01-08T09:33:29;96091.28;;;3.10;100.00
28927;BME280;16038;47.692;9.400;2023-01-08T09:35:55;96102.59;;;3.24;100.00
28927;BME280;16038;47.692;9.400;2023-01-08T09:38:20;96091.25;;;3.43;100.00
28927;BME280;16038;47.692;9.400;2023-01-08T09:43:15;96103.38;;;3.58;100.00
28927;BME280;16038;47.692;9.400;2023-01-08T09:45:41;96105.00;;;3.96;100.00
28927;BME280;16038;47.692;9.400;2023-01-08T09:48:13;96095.50;;;4.02;100.00
28927;BME280;16038;47.692;9.400;2023-01-08T09:50:39;96080.84;;;4.04;100.00
28927;BME280;16038;47.692;9.400;2023-01-08T09:53:07;96061.06;;;4.03;100.00
28927;BME280;16038;47.692;9.400;2023-01-08T09:55:33;96068.28;;;4.11;100.00
28927;BME280;16038;47.692;9.400;2023-01-08T09:57:59;96075.28;;;4.25;100.00
28927;BME280;16038;47.692;9.400;2023-01-08T10:00:28;96068.16;;;4.32;100.00
28927;BME280;16038;47.692;9.400;2023-01-08T10:02:54;96065.25;;;4.13;100.00
28927;BME280;16038;47.692;9.400;2023-01-08T10:05:20;96065.81;;;4.06;100.00
28927;BME280;16038;47.692;9.400;2023-01-08T10:07:45;96060.16;;;4.11;100.00
28927;BME280;16038;47.692;9.400;2023-01-08T10:10:24;96056.53;;;4.19;100.00
28927;BME280;16038;47.692;9.400;2023-01-08T10:12:51;96072.66;;;4.40;100.00
28927;BME280;16038;47.692;9.400;2023-01-08T10:15:17;96078.53;;;4.43;100.00
28927;BME280;16038;47.692;9.400;2023-01-08T10:17:48;96072.44;;;4.33;100.00
28927;BME280;16038;47.692;9.400;2023-01-08T10:22:40;96069.84;;;4.37;100.00
28927;BME280;16038;47.692;9.400;2023-01-08T10:25:19;96051.69;;;4.25;100.00
28927;BME280;16038;47.692;9.400;2023-01-08T10:30:13;96036.44;;;4.20;100.00
28927;BME280;16038;47.692;9.400;2023-01-08T10:32:44;96024.59;;;4.25;100.00
28927;BME280;16038;47.692;9.400;2023-01-08T10:35:18;96021.06;;;4.25;100.00
28927;BME280;16038;47.692;9.400;2023-01-08T10:37:44;96017.22;;;4.38;100.00
28927;BME280;16038;47.692;9.400;2023-01-08T10:43:03;96035.38;;;4.78;100.00
28927;BME280;16038;47.692;9.400;2023-01-08T10:45:29;96044.63;;;4.77;100.00
28927;BME280;16038;47.692;9.400;2023-01-08T10:47:56;96035.56;;;4.57;100.00
28927;BME280;16038;47.692;9.400;2023-01-08T10:50:26;96029.13;;;4.62;100.00
28927;BME280;16038;47.692;9.400;2023-01-08T10:53:02;96029.22;;;4.65;100.00
28927;BME280;16038;47.692;9.400;2023-01-08T10:55:29;96031.69;;;4.70;100.00
28927;BME280;16038;47.692;9.400;2023-01-08T10:58:01;96028.63;;;4.72;100.00
28927;BME280;16038;47.692;9.400;2023-01-08T11:00:30;96011.69;;;4.63;100.00
28927;BME280;16038;47.692;9.400;2023-01-08T11:02:59;96014.34;;;4.75;100.00
28927;BME280;16038;47.692;9.400;2023-01-08T11:05:32;96015.16;;;4.75;100.00
28927;BME280;16038;47.692;9.400;2023-01-08T11:07:58;95994.38;;;4.67;100.00
28927;BME280;16038;47.692;9.400;2023-01-08T11:10:25;95986.94;;;4.64;100.00
28927;BME280;16038;47.692;9.400;2023-01-08T11:12:55;95975.50;;;4.71;100.00
28927;BME280;16038;47.692;9.400;2023-01-08T11:17:47;95963.59;;;4.59;100.00
28927;BME280;16038;47.692;9.400;2023-01-08T11:20:22;95949.09;;;4.55;100.00
28927;BME280;16038;47.692;9.400;2023-01-08T11:22:48;95953.56;;;4.48;100.00
28927;BME280;16038;47.692;9.400;2023-01-08T11:25:17;95945.97;;;4.25;100.00
28927;BME280;16038;47.692;9.400;2023-01-08T11:27:46;95934.22;;;4.21;100.00
28927;BME280;16038;47.692;9.400;2023-01-08T11:30:13;95935.22;;;4.29;100.00
28927;BME280;16038;47.692;9.400;2023-01-08T11:37:42;95913.78;;;4.68;100.00
28927;BME280;16038;47.692;9.400;2023-01-08T11:40:12;95914.28;;;5.02;100.00
28927;BME280;16038;47.692;9.400;2023-01-08T11:45:25;95912.53;;;5.25;100.00
28927;BME280;16038;47.692;9.400;2023-01-08T11:50:23;95904.28;;;5.22;100.00
28927;BME280;16038;47.692;9.400;2023-01-08T11:53:00;95893.34;;;5.18;100.00
28927;BME280;16038;47.692;9.400;2023-01-08T12:00:52;95883.63;;;4.69;100.00
28927;BME280;16038;47.692;9.400;2023-01-08T12:03:41;95874.09;;;4.75;100.00
28927;BME280;16038;47.692;9.400;2023-01-08T12:11:24;95849.69;;;4.75;100.00
28927;BME280;16038;47.692;9.400;2023-01-08T12:17:05;95828.25;;;5.38;100.00
28927;BME280;16038;47.692;9.400;2023-01-08T12:22:04;95828.13;;;5.14;100.00
28927;BME280;16038;47.692;9.400;2023-01-08T12:32:25;95816.09;;;5.31;100.00
28927;BME280;16038;47.692;9.400;2023-01-08T12:35:10;95800.66;;;5.35;100.00
28927;BME280;16038;47.692;9.400;2023-01-08T12:40:12;95805.28;;;5.70;100.00
28927;BME280;16038;47.692;9.400;2023-01-08T12:42:39;95799.28;;;5.61;100.00
28927;BME280;16038;47.692;9.400;2023-01-08T12:45:05;95791.34;;;5.72;100.00
28927;BME280;16038;47.692;9.400;2023-01-08T12:47:37;95787.84;;;5.71;100.00
28927;BME280;16038;47.692;9.400;2023-01-08T12:57:28;95770.75;;;5.71;100.00
28927;BME280;16038;47.692;9.400;2023-01-08T13:02:41;95773.03;;;5.49;100.00
28927;BME280;16038;47.692;9.400;2023-01-08T13:05:13;95773.94;;;5.38;100.00
28927;BME280;16038;47.692;9.400;2023-01-08T13:07:56;95764.00;;;5.26;100.00
28927;BME280;16038;47.692;9.400;2023-01-08T13:12:49;95769.00;;;5.43;100.00
28927;BME280;16038;47.692;9.400;2023-01-08T13:15:21;95774.16;;;5.48;100.00
28927;BME280;16038;47.692;9.400;2023-01-08T13:17:49;95773.69;;;5.62;100.00
28927;BME280;16038;47.692;9.400;2023-01-08T13:20:25;95770.38;;;5.72;100.00
28927;BME280;16038;47.692;9.400;2023-01-08T13:22:51;95767.44;;;5.62;100.00
28927;BME280;16038;47.692;9.400;2023-01-08T13:27:44;95758.06;;;5.40;100.00
28927;BME280;16038;47.692;9.400;2023-01-08T13:32:53;95749.38;;;5.50;100.00
28927;BME280;16038;47.692;9.400;2023-01-08T13:35:20;95750.34;;;5.42;100.00
28927;BME280;16038;47.692;9.400;2023-01-08T13:37:50;95748.28;;;5.54;100.00
28927;BME280;16038;47.692;9.400;2023-01-08T13:43:00;95746.94;;;5.64;100.00
28927;BME280;16038;47.692;9.400;2023-01-08T13:45:25;95745.38;;;5.83;100.00
28927;BME280;16038;47.692;9.400;2023-01-08T13:47:53;95734.44;;;5.99;100.00
28927;BME280;16038;47.692;9.400;2023-01-08T13:50:20;95726.06;;;6.07;100.00
28927;BME280;16038;47.692;9.400;2023-01-08T13:52:48;95735.63;;;6.01;100.00
28927;BME280;16038;47.692;9.400;2023-01-08T13:55:26;95740.47;;;5.92;100.00
28927;BME280;16038;47.692;9.400;2023-01-08T13:57:54;95736.38;;;5.79;100.00
28927;BME280;16038;47.692;9.400;2023-01-08T14:00:26;95737.84;;;5.76;100.00
28927;BME280;16038;47.692;9.400;2023-01-08T14:02:52;95721.06;;;5.70;100.00
28927;BME280;16038;47.692;9.400;2023-01-08T14:05:23;95723.47;;;5.75;100.00
28927;BME280;16038;47.692;9.400;2023-01-08T14:07:49;95712.13;;;5.70;100.00
28927;BME280;16038;47.692;9.400;2023-01-08T14:10:15;95702.72;;;5.64;100.00
28927;BME280;16038;47.692;9.400;2023-01-08T14:12:41;95708.69;;;5.73;100.00
28927;BME280;16038;47.692;9.400;2023-01-08T14:15:06;95712.03;;;5.86;100.00
28927;BME280;16038;47.692;9.400;2023-01-08T14:17:34;95718.91;;;5.99;100.00
28927;BME280;16038;47.692;9.400;2023-01-08T14:19:59;95710.22;;;6.13;100.00
28927;BME280;16038;47.692;9.400;2023-01-08T14:22:26;95697.97;;;6.00;100.00
28927;BME280;16038;47.692;9.400;2023-01-08T14:24:55;95705.09;;;5.88;100.00
28927;BME280;16038;47.692;9.400;2023-01-08T14:27:23;95701.56;;;5.45;100.00